Time;durP1;ratioP1;P1;durP2;ratioP2;P2;SDS_P1;SDS_P2;PMS_P1;PMS_P2;Temp;Humidity;BMP_temperature;BMP_pressure;BME280_temperature;BME280_humidity;BME280_pressure;Samples;Min_cycle;Max_cycle;Signal;HPM_P1;HPM_P2
2021/03/27 00:00:27;;;;;;;7.97;7.10;;;14.00;96.80;;;;;;5015868;28;20405;-66
2021/03/27 00:02:59;;;;;;;9.87;7.70;;;13.80;97.20;;;;;;5015776;28;20167;-66
2021/03/27 00:05:47;;;;;;;11.30;7.50;;;13.90;97.60;;;;;;5015853;28;20425;-66
2021/03/27 00:08:18;;;;;;;7.97;7.27;;;13.90;97.80;;;;;;5016063;28;20394;-66
2021/03/27 00:11:00;;;;;;;9.70;7.47;;;13.90;98.10;;;;;;5015821;28;20410;-66
2021/03/27 00:13:57;;;;;;;7.53;6.80;;;13.70;98.50;;;;;;5017865;28;20400;-66
2021/03/27 00:17:02;;;;;;;7.73;7.03;;;13.70;98.80;;;;;;4992328;28;20460;-66
2021/03/27 00:19:54;;;;;;;7.33;6.50;;;13.70;99.20;;;;;;5012220;28;20507;-66
2021/03/27 00:22:48;;;;;;;7.00;5.97;;;13.60;99.30;;;;;;5015789;28;20747;-66
2021/03/27 00:25:33;;;;;;;6.70;6.10;;;13.60;99.20;;;;;;5007036;28;20415;-66
2021/03/27 00:28:22;;;;;;;6.67;6.00;;;13.50;99.50;;;;;;5015216;28;20468;-66
2021/03/27 00:31:04;;;;;;;7.27;6.57;;;13.50;99.40;;;;;;5015519;28;20382;-65
2021/03/27 00:33:35;;;;;;;7.00;5.77;;;13.50;99.50;;;;;;5015232;28;20485;-66
2021/03/27 00:36:13;;;;;;;7.47;5.80;;;13.50;99.70;;;;;;5015388;28;20752;-66
2021/03/27 00:38:47;;;;;;;6.20;5.60;;;13.50;99.90;;;;;;5015377;28;20422;-66
2021/03/27 00:41:18;;;;;;;5.97;5.37;;;13.50;99.90;;;;;;5015320;28;20395;-66
2021/03/27 00:43:52;;;;;;;6.50;5.87;;;13.30;99.90;;;;;;5015020;28;20405;-66
2021/03/27 00:46:19;;;;;;;6.40;5.80;;;13.30;99.90;;;;;;5015306;28;20450;-66
2021/03/27 00:49:03;;;;;;;5.37;4.90;;;13.30;99.90;;;;;;5014575;28;20458;-66
2021/03/27 00:51:41;;;;;;;6.63;6.03;;;13.30;99.90;;;;;;5015201;28;20392;-66
2021/03/27 00:54:24;;;;;;;6.00;5.50;;;13.30;99.90;;;;;;5015473;28;20442;-66
2021/03/27 00:57:00;;;;;;;9.20;5.50;;;13.40;99.90;;;;;;5014914;28;20954;-66
2021/03/27 00:59:32;;;;;;;6.80;5.23;;;13.50;99.90;;;;;;5014656;28;20423;-66
2021/03/27 01:02:01;;;;;;;5.97;4.93;;;13.50;99.90;;;;;;5015012;28;20480;-66
2021/03/27 01:04:33;;;;;;;5.30;4.80;;;13.50;99.90;;;;;;5014437;28;20412;-67
2021/03/27 01:07:08;;;;;;;6.03;4.30;;;13.60;99.90;;;;;;5015012;28;20423;-66
2021/03/27 01:09:52;;;;;;;7.60;6.23;;;13.50;99.90;;;;;;5015021;28;21003;-66
2021/03/27 01:12:22;;;;;;;8.43;6.20;;;13.30;99.90;;;;;;5015107;28;20387;-66
2021/03/27 01:14:50;;;;;;;6.43;5.83;;;12.90;99.90;;;;;;5013642;28;20892;-66
2021/03/27 01:17:21;;;;;;;6.30;5.07;;;12.90;99.90;;;;;;5014688;28;20527;-66
2021/03/27 01:19:51;;;;;;;6.23;5.63;;;12.90;99.90;;;;;;5014230;28;20892;-66
2021/03/27 01:22:18;;;;;;;5.57;4.97;;;12.90;99.90;;;;;;5008576;28;20439;-67
2021/03/27 01:24:45;;;;;;;5.53;4.90;;;12.80;99.90;;;;;;5008774;28;20404;-67
2021/03/27 01:27:22;;;;;;;5.57;5.00;;;12.90;99.90;;;;;;5014161;28;20462;-66
2021/03/27 01:30:02;;;;;;;8.57;5.60;;;12.90;99.90;;;;;;5014105;28;20455;-66
2021/03/27 01:32:51;;;;;;;5.63;5.03;;;12.80;99.90;;;;;;5014485;28;20442;-66
2021/03/27 01:35:34;;;;;;;5.73;5.23;;;12.80;99.90;;;;;;5013953;28;20406;-66
2021/03/27 01:38:15;;;;;;;6.47;5.87;;;12.80;99.90;;;;;;5014591;28;20846;-66
2021/03/27 01:41:08;;;;;;;7.00;6.30;;;12.60;99.90;;;;;;5014192;28;20417;-66
2021/03/27 01:43:55;;;;;;;5.70;5.13;;;12.60;99.90;;;;;;5013836;28;20494;-66
2021/03/27 01:46:33;;;;;;;6.30;5.70;;;12.60;99.90;;;;;;5014170;28;20796;-66
2021/03/27 01:49:35;;;;;;;6.03;5.47;;;12.60;99.90;;;;;;5013844;28;20452;-66
2021/03/27 01:52:19;;;;;;;6.23;5.60;;;13.00;99.90;;;;;;5014135;28;20395;-66
2021/03/27 01:55:13;;;;;;;7.67;5.60;;;12.90;99.90;;;;;;5014240;28;20471;-66
2021/03/27 01:58:04;;;;;;;5.50;4.90;;;12.90;99.90;;;;;;5014120;28;20434;-66
2021/03/27 02:00:40;;;;;;;5.83;5.17;;;12.70;99.90;;;;;;5013824;28;20391;-66
2021/03/27 02:03:12;;;;;;;6.00;5.47;;;12.70;99.90;;;;;;5014006;28;20463;-66
2021/03/27 02:06:02;;;;;;;7.10;6.40;;;12.70;99.90;;;;;;5013424;28;20515;-66
2021/03/27 02:08:54;;;;;;;6.33;5.73;;;12.60;99.90;;;;;;4996266;28;20980;-66
2021/03/27 02:11:53;;;;;;;6.93;5.63;;;12.70;99.90;;;;;;4999683;28;20427;-67
2021/03/27 02:14:23;;;;;;;5.90;5.30;;;12.70;99.90;;;;;;5016009;28;20389;-66
2021/03/27 02:16:55;;;;;;;8.40;6.00;;;12.60;99.90;;;;;;5013448;28;20441;-67
2021/03/27 02:19:35;;;;;;;6.73;6.20;;;12.60;99.90;;;;;;5013652;28;20400;-66
2021/03/27 02:22:27;;;;;;;7.87;5.93;;;12.50;99.90;;;;;;5013846;28;20391;-66
2021/03/27 02:25:23;;;;;;;7.43;6.30;;;12.60;99.90;;;;;;5013529;28;20395;-66
2021/03/27 02:27:59;;;;;;;7.60;6.80;;;12.60;99.90;;;;;;5054978;23;20481;-61
2021/03/27 02:30:39;;;;;;;7.07;6.47;;;12.40;99.90;;;;;;5033479;28;20432;-60
2021/03/27 02:33:37;;;;;;;6.73;6.03;;;12.40;99.90;;;;;;5033752;28;20751;-60
2021/03/27 02:36:30;;;;;;;7.10;5.67;;;12.40;99.90;;;;;;5033357;28;20390;-60
2021/03/27 02:39:13;;;;;;;6.80;6.20;;;12.20;99.90;;;;;;5033460;28;20388;-61
2021/03/27 02:42:17;;;;;;;6.80;6.10;;;12.20;99.90;;;;;;5033402;28;20382;-61
2021/03/27 02:44:49;;;;;;;7.33;6.37;;;12.10;99.90;;;;;;4945333;28;20572;-60
2021/03/27 02:47:21;;;;;;;7.13;6.43;;;12.30;99.90;;;;;;5033032;28;20493;-61
2021/03/27 02:50:14;;;;;;;7.03;6.00;;;12.30;99.90;;;;;;5032689;28;20442;-60
2021/03/27 02:53:11;;;;;;;6.53;5.93;;;12.20;99.90;;;;;;5032669;28;20417;-60
2021/03/27 02:56:31;;;;;;;7.73;6.87;;;12.10;99.90;;;;;;5033364;28;20500;-61
2021/03/27 02:59:47;;;;;;;6.70;6.10;;;12.00;99.90;;;;;;4992806;28;20435;-60
2021/03/27 03:02:32;;;;;;;6.20;5.40;;;11.80;99.90;;;;;;4991282;28;20416;-61
2021/03/27 03:05:10;;;;;;;6.07;5.50;;;11.70;99.90;;;;;;5032813;28;20447;-60
2021/03/27 03:07:47;;;;;;;6.80;6.10;;;11.70;99.90;;;;;;5032981;28;20430;-61
2021/03/27 03:10:48;;;;;;;6.37;5.77;;;11.50;99.90;;;;;;5033099;28;20917;-60
2021/03/27 03:13:25;;;;;;;8.07;7.27;;;11.30;99.90;;;;;;4994890;28;20416;-61
2021/03/27 03:16:09;;;;;;;6.83;6.03;;;11.40;99.90;;;;;;5032730;28;20374;-60
2021/03/27 03:18:43;;;;;;;6.80;6.20;;;11.30;99.90;;;;;;5033065;28;20389;-61
2021/03/27 03:21:17;;;;;;;5.30;4.83;;;11.30;99.90;;;;;;5032802;28;20390;-61
2021/03/27 03:23:57;;;;;;;6.00;5.50;;;11.30;99.90;;;;;;5015033;28;20475;-61
2021/03/27 03:26:57;;;;;;;7.53;6.07;;;11.40;99.90;;;;;;5032858;28;20446;-61
2021/03/27 03:29:44;;;;;;;5.23;4.73;;;11.50;99.90;;;;;;5032437;28;20536;-61
2021/03/27 03:32:21;;;;;;;5.17;4.70;;;11.50;99.90;;;;;;5033200;28;20401;-61
2021/03/27 03:35:02;;;;;;;5.17;4.67;;;11.60;99.90;;;;;;5032695;28;20382;-61
2021/03/27 03:37:42;;;;;;;4.63;4.23;;;11.80;99.90;;;;;;5032749;28;20855;-61
2021/03/27 03:40:31;;;;;;;4.70;4.30;;;11.70;99.90;;;;;;5036370;28;20410;-60
2021/03/27 03:42:57;;;;;;;4.20;3.73;;;11.80;99.90;;;;;;5036648;28;20845;-60
2021/03/27 03:45:54;;;;;;;4.77;4.30;;;11.90;99.90;;;;;;5036166;28;20493;-60
2021/03/27 03:48:45;;;;;;;4.77;4.37;;;12.20;99.90;;;;;;5037077;28;20631;-61
2021/03/27 03:51:48;;;;;;;6.10;5.20;;;12.00;99.90;;;;;;5036438;28;20432;-61
2021/03/27 03:54:36;;;;;;;3.47;2.50;;;11.50;99.90;;;;;;5036114;28;20397;-61
2021/03/27 03:57:02;;;;;;;1.20;1.10;;;10.90;99.90;;;;;;5036176;28;20473;-60
2021/03/27 04:00:08;;;;;;;1.73;1.20;;;10.30;99.90;;;;;;5035792;28;20409;-60
2021/03/27 04:02:41;;;;;;;1.40;1.07;;;10.20;99.90;;;;;;5036566;28;20619;-60
2021/03/27 04:05:32;;;;;;;1.20;1.10;;;10.10;99.90;;;;;;5035748;28;20386;-60
2021/03/27 04:08:07;;;;;;;1.40;1.30;;;10.10;99.90;;;;;;5036039;28;21004;-59
2021/03/27 04:10:34;;;;;;;1.63;1.53;;;10.10;99.90;;;;;;5036359;28;20414;-61
2021/03/27 04:13:15;;;;;;;1.73;1.40;;;10.10;99.90;;;;;;5046891;28;20407;-60
2021/03/27 04:15:54;;;;;;;1.30;1.00;;;9.90;99.90;;;;;;5029554;28;20423;-60
2021/03/27 04:18:37;;;;;;;1.17;0.97;;;10.00;99.90;;;;;;5016399;28;20743;-61
2021/03/27 04:21:08;;;;;;;0.80;0.77;;;9.80;99.90;;;;;;5015834;28;20409;-61
2021/03/27 04:23:42;;;;;;;1.40;1.00;;;9.90;99.90;;;;;;5015763;28;20403;-61
2021/03/27 04:26:17;;;;;;;2.40;0.93;;;10.00;99.90;;;;;;5015537;28;20466;-60
2021/03/27 04:29:20;;;;;;;2.70;1.20;;;9.70;99.90;;;;;;5026474;28;20509;-60
2021/03/27 04:32:10;;;;;;;1.53;1.20;;;9.60;99.90;;;;;;5035392;28;20400;-60
2021/03/27 04:34:43;;;;;;;1.77;0.90;;;9.70;99.90;;;;;;5035012;28;20533;-60
2021/03/27 04:37:21;;;;;;;1.20;0.80;;;9.60;99.90;;;;;;5035467;28;20431;-60
2021/03/27 04:40:00;;;;;;;1.30;1.17;;;9.50;99.90;;;;;;5035458;28;20396;-61
2021/03/27 04:42:40;;;;;;;0.80;0.63;;;9.60;99.90;;;;;;5035825;28;20413;-61
2021/03/27 04:45:37;;;;;;;1.67;1.00;;;9.60;99.90;;;;;;5035405;28;20400;-60
2021/03/27 04:48:25;;;;;;;1.13;0.93;;;9.70;99.90;;;;;;5035128;28;20427;-61
2021/03/27 04:51:21;;;;;;;1.43;0.70;;;9.80;99.90;;;;;;5017102;28;20423;-61
2021/03/27 04:54:11;;;;;;;1.80;0.77;;;9.90;99.90;;;;;;5035050;28;20499;-61
2021/03/27 04:57:02;;;;;;;1.10;0.93;;;9.80;99.90;;;;;;5035328;28;20781;-61
2021/03/27 04:59:36;;;;;;;0.90;0.70;;;10.00;99.90;;;;;;5035181;28;20415;-61
2021/03/27 05:02:12;;;;;;;0.93;0.83;;;9.60;99.90;;;;;;5035106;28;20381;-61
2021/03/27 05:05:01;;;;;;;1.30;0.97;;;9.40;99.90;;;;;;5034709;28;20389;-61
2021/03/27 05:07:56;;;;;;;1.70;0.87;;;9.40;99.90;;;;;;5034654;28;20689;-60
2021/03/27 05:10:39;;;;;;;1.53;0.63;;;9.30;99.90;;;;;;5034967;28;20447;-61
2021/03/27 05:13:23;;;;;;;1.80;0.90;;;9.00;99.90;;;;;;5035278;28;20395;-60
2021/03/27 05:15:59;;;;;;;1.30;0.80;;;8.90;99.90;;;;;;5034377;28;20399;-62
2021/03/27 05:19:03;;;;;;;0.70;0.60;;;9.00;99.90;;;;;;5034695;28;20395;-60
2021/03/27 05:21:36;;;;;;;1.17;0.80;;;9.00;99.90;;;;;;4935284;29;20460;-60
2021/03/27 05:24:23;;;;;;;1.87;0.70;;;9.10;99.90;;;;;;4935446;29;20392;-60
2021/03/27 05:26:58;;;;;;;1.63;0.83;;;9.20;99.90;;;;;;5000047;28;20542;-60
2021/03/27 05:29:46;;;;;;;1.33;0.77;;;9.30;99.90;;;;;;5034325;28;20458;-60
2021/03/27 05:32:42;;;;;;;1.00;0.90;;;9.30;99.90;;;;;;5035367;28;20885;-59
2021/03/27 05:35:30;;;;;;;1.07;0.80;;;9.40;99.90;;;;;;5034240;28;20444;-60
2021/03/27 05:38:28;;;;;;;0.90;0.80;;;9.30;99.90;;;;;;5038863;28;20770;-59
2021/03/27 05:41:21;;;;;;;1.53;0.83;;;9.30;99.90;;;;;;5020451;28;20545;-60
2021/03/27 05:44:38;;;;;;;1.13;0.70;;;9.20;99.90;;;;;;5018623;28;20473;-59
2021/03/27 05:47:40;;;;;;;1.43;0.87;;;9.20;99.90;;;;;;5019538;28;20437;-59
2021/03/27 05:50:29;;;;;;;1.03;0.70;;;9.20;99.90;;;;;;5034039;28;20444;-60
2021/03/27 05:53:31;;;;;;;0.80;0.70;;;9.20;99.90;;;;;;5014790;28;20433;-60
2021/03/27 05:56:25;;;;;;;1.30;0.60;;;9.30;99.90;;;;;;5014910;28;20385;-57
2021/03/27 05:59:07;;;;;;;0.80;0.70;;;9.30;99.90;;;;;;5025977;28;20944;-59
2021/03/27 06:01:51;;;;;;;0.77;0.60;;;9.10;99.90;;;;;;5034698;28;20420;-59
2021/03/27 06:04:22;;;;;;;0.80;0.60;;;8.80;99.90;;;;;;5024631;28;20875;-61
2021/03/27 06:07:25;;;;;;;1.43;0.60;;;8.70;99.90;;;;;;5034618;28;20429;-60
2021/03/27 06:10:02;;;;;;;0.70;0.60;;;8.90;99.90;;;;;;5050853;28;20457;-60
2021/03/27 06:12:42;;;;;;;0.83;0.67;;;8.80;99.90;;;;;;5049193;28;20395;-60
2021/03/27 06:15:25;;;;;;;1.00;0.60;;;8.80;99.90;;;;;;5024212;28;20409;-60
2021/03/27 06:18:18;;;;;;;1.00;0.80;;;8.90;99.90;;;;;;5033015;28;20462;-60
2021/03/27 06:21:21;;;;;;;1.00;0.90;;;9.00;99.90;;;;;;5029404;28;20409;-61
2021/03/27 06:23:55;;;;;;;1.00;0.70;;;9.20;99.90;;;;;;5016597;28;20410;-61
2021/03/27 06:26:27;;;;;;;1.17;0.90;;;9.20;99.90;;;;;;5018168;28;20446;-60
2021/03/27 06:29:26;;;;;;;1.47;0.87;;;9.00;99.90;;;;;;5033553;28;20440;-60
2021/03/27 06:32:11;;;;;;;1.80;0.80;;;8.90;99.90;;;;;;5032291;28;20556;-58
2021/03/27 06:34:54;;;;;;;1.73;0.90;;;8.90;99.90;;;;;;5033730;28;20474;-61
2021/03/27 06:37:47;;;;;;;1.10;0.80;;;8.70;99.90;;;;;;5033413;28;20432;-60
2021/03/27 06:40:38;;;;;;;1.43;1.00;;;8.50;99.90;;;;;;5028521;28;20438;-61
2021/03/27 06:43:22;;;;;;;1.13;0.80;;;8.40;99.90;;;;;;5013667;28;20497;-61
2021/03/27 06:46:22;;;;;;;1.43;0.97;;;8.30;99.90;;;;;;5027451;28;20395;-60
2021/03/27 06:49:30;;;;;;;0.90;0.80;;;8.30;99.90;;;;;;5033301;28;20922;-60
2021/03/27 06:52:33;;;;;;;2.93;0.90;;;8.40;99.90;;;;;;5024852;28;20829;-60
2021/03/27 06:55:20;;;;;;;2.17;1.10;;;8.40;99.90;;;;;;5033254;28;20404;-61
2021/03/27 06:58:21;;;;;;;1.60;0.77;;;8.60;99.90;;;;;;5021040;28;20833;-61
2021/03/27 07:01:14;;;;;;;1.33;1.00;;;8.70;99.90;;;;;;5013797;28;20386;-60
2021/03/27 07:04:17;;;;;;;1.67;1.00;;;8.70;99.90;;;;;;5013164;28;20387;-61
2021/03/27 07:06:55;;;;;;;2.70;0.83;;;8.50;99.90;;;;;;5014229;28;20774;-60
2021/03/27 07:09:51;;;;;;;2.17;1.00;;;8.40;99.90;;;;;;5031859;28;20541;-61
2021/03/27 07:12:40;;;;;;;2.40;1.20;;;8.50;99.90;;;;;;5021592;28;20412;-61
2021/03/27 07:15:30;;;;;;;1.60;0.90;;;8.70;99.90;;;;;;5036732;28;20387;-61
2021/03/27 07:18:13;;;;;;;1.90;0.90;;;8.90;99.90;;;;;;5016621;28;20768;-59
2021/03/27 07:20:46;;;;;;;1.27;1.00;;;9.00;99.90;;;;;;5017331;28;20408;-61
2021/03/27 07:23:52;;;;;;;1.93;0.90;;;9.20;99.90;;;;;;5016970;28;20394;-60
2021/03/27 07:26:48;;;;;;;1.33;1.00;;;9.30;99.90;;;;;;5017132;28;20469;-60
2021/03/27 07:29:41;;;;;;;3.27;0.90;;;9.40;99.90;;;;;;5030071;28;20454;-61
2021/03/27 07:32:28;;;;;;;1.40;0.90;;;9.40;99.90;;;;;;5035302;28;20420;-60
2021/03/27 07:35:12;;;;;;;1.47;0.80;;;9.00;99.90;;;;;;5036124;28;20453;-60
2021/03/27 07:37:56;;;;;;;1.20;1.00;;;9.00;99.90;;;;;;5024846;28;20424;-61
2021/03/27 07:40:39;;;;;;;1.40;0.90;;;9.00;99.90;;;;;;5016585;28;20396;-61
2021/03/27 07:43:49;;;;;;;1.93;1.13;;;9.00;99.90;;;;;;5032812;28;20425;-61
2021/03/27 07:46:33;;;;;;;2.33;0.83;;;9.00;99.90;;;;;;5036109;28;20433;-61
2021/03/27 07:49:18;;;;;;;1.60;1.00;;;9.20;99.90;;;;;;5036418;28;20530;-61
2021/03/27 07:52:02;;;;;;;2.57;0.90;;;9.20;99.90;;;;;;5006218;28;20979;-61
2021/03/27 07:55:00;;;;;;;1.23;0.80;;;9.20;99.90;;;;;;5026424;28;20480;-59
2021/03/27 07:57:53;;;;;;;4.33;0.90;;;9.30;99.90;;;;;;5041994;28;20426;-60
2021/03/27 08:00:44;;;;;;;1.30;1.00;;;9.20;99.90;;;;;;5030375;28;20452;-60
2021/03/27 08:03:47;;;;;;;1.70;0.90;;;9.30;99.80;;;;;;5019831;28;20510;-61
2021/03/27 08:06:29;;;;;;;1.53;0.87;;;9.30;99.90;;;;;;5026041;28;20444;-61
2021/03/27 08:09:13;;;;;;;2.27;0.90;;;9.20;99.90;;;;;;5031545;28;20494;-61
2021/03/27 08:12:02;;;;;;;5.23;1.00;;;9.20;99.90;;;;;;5020562;28;20405;-61
2021/03/27 08:15:07;;;;;;;1.90;0.90;;;9.30;99.90;;;;;;5020911;28;20423;-61
2021/03/27 08:17:58;;;;;;;2.63;0.97;;;9.50;99.90;;;;;;5035469;28;20424;-61
2021/03/27 08:20:52;;;;;;;1.90;0.83;;;9.60;99.90;;;;;;5036164;28;20461;-63
2021/03/27 08:23:45;;;;;;;2.63;0.97;;;9.60;99.90;;;;;;5017817;28;20441;-61
2021/03/27 08:28:39;;;;;;;1.83;0.80;;;9.50;99.90;;;;;;5073170;22;20481;-65
2021/03/27 08:31:56;;;;;;;2.13;0.90;;;9.50;99.90;;;;;;5054127;28;20205;-64
2021/03/27 08:34:48;;;;;;;3.13;1.07;;;9.50;99.60;;;;;;5010716;28;20782;-64
2021/03/27 08:37:22;;;;;;;3.63;0.80;;;9.50;99.50;;;;;;5054805;28;20418;-65
2021/03/27 08:40:17;;;;;;;3.00;1.00;;;9.50;98.30;;;;;;5036937;28;20403;-65
2021/03/27 08:43:04;;;;;;;0.77;0.63;;;9.50;96.70;;;;;;4967060;28;20408;-65
2021/03/27 08:45:54;;;;;;;2.53;0.83;;;9.60;96.10;;;;;;5037371;28;20425;-64
2021/03/27 08:49:10;;;;;;;1.13;0.80;;;9.70;96.20;;;;;;5054304;28;20503;-65
2021/03/27 08:52:01;;;;;;;2.50;1.23;;;9.80;95.70;;;;;;4995703;28;20465;-65
2021/03/27 08:54:53;;;;;;;1.40;1.07;;;9.70;94.60;;;;;;5054417;28;20978;-65
2021/03/27 08:57:37;;;;;;;1.33;0.90;;;10.00;94.50;;;;;;5054030;28;20449;-65
2021/03/27 09:00:14;;;;;;;2.17;0.73;;;9.80;93.50;;;;;;5062015;28;20417;-65
2021/03/27 09:03:00;;;;;;;2.30;0.97;;;10.00;92.90;;;;;;5059538;28;21069;-65
2021/03/27 09:05:45;;;;;;;1.73;0.80;;;10.00;92.60;;;;;;5048037;28;20416;-64
2021/03/27 09:08:22;;;;;;;1.00;0.63;;;10.10;92.50;;;;;;5057603;28;20436;-65
2021/03/27 09:11:07;;;;;;;2.63;0.93;;;10.10;92.20;;;;;;5065756;28;20502;-66
2021/03/27 09:13:53;;;;;;;1.13;0.80;;;10.20;92.00;;;;;;5063098;28;20424;-65
2021/03/27 09:16:40;;;;;;;2.63;0.87;;;10.50;91.80;;;;;;5055410;28;20459;-65
2021/03/27 09:19:30;;;;;;;1.87;1.07;;;10.50;91.30;;;;;;5055651;28;20509;-66
2021/03/27 09:22:38;;;;;;;1.30;0.97;;;10.40;91.10;;;;;;5048105;28;20771;-65
2021/03/27 09:25:33;;;;;;;0.90;0.60;;;10.40;90.90;;;;;;5055018;28;20972;-65
2021/03/27 09:28:37;;;;;;;4.10;1.00;;;10.70;91.10;;;;;;5054206;28;20459;-65
2021/03/27 09:31:05;;;;;;;2.57;1.43;;;10.90;90.90;;;;;;5025874;28;20440;-65
2021/03/27 09:33:46;;;;;;;3.63;1.23;;;10.70;90.00;;;;;;5055267;28;20935;-66
2021/03/27 09:36:28;;;;;;;1.13;0.70;;;11.00;90.90;;;;;;5066789;28;20393;-66
2021/03/27 09:39:20;;;;;;;1.73;0.80;;;11.10;89.10;;;;;;5061453;28;20436;-66
2021/03/27 09:42:10;;;;;;;1.60;1.50;;;11.10;90.70;;;;;;5034353;28;20419;-66
2021/03/27 09:44:56;;;;;;;2.10;0.90;;;11.00;90.60;;;;;;5055126;28;20900;-65
2021/03/27 09:47:54;;;;;;;1.57;0.90;;;11.20;89.10;;;;;;5070152;28;20424;-65
2021/03/27 09:50:36;;;;;;;3.97;1.10;;;11.10;90.10;;;;;;5053454;28;20967;-65
2021/03/27 09:53:16;;;;;;;3.57;1.30;;;11.10;88.60;;;;;;5054220;28;20379;-65
2021/03/27 09:56:11;;;;;;;2.30;0.80;;;11.40;88.60;;;;;;5056297;28;20397;-65
2021/03/27 09:58:49;;;;;;;2.00;0.83;;;11.40;87.90;;;;;;5049745;28;20440;-65
2021/03/27 10:01:41;;;;;;;1.93;0.90;;;11.60;86.80;;;;;;5053894;28;20393;-65
2021/03/27 10:04:31;;;;;;;2.57;0.90;;;11.70;84.80;;;;;;5033371;28;20419;-65
2021/03/27 10:07:08;;;;;;;3.00;0.87;;;11.60;86.80;;;;;;5033502;28;20420;-64
2021/03/27 10:09:59;;;;;;;1.23;0.70;;;11.70;85.50;;;;;;5051096;28;20480;-64
2021/03/27 10:13:03;;;;;;;1.87;1.17;;;11.60;81.70;;;;;;5053308;28;20405;-65
2021/03/27 10:15:32;;;;;;;2.30;0.80;;;11.40;80.80;;;;;;5024454;28;20771;-64
2021/03/27 10:18:11;;;;;;;2.87;1.57;;;11.50;81.70;;;;;;5052157;28;20945;-64
2021/03/27 10:21:00;;;;;;;1.40;1.00;;;11.60;83.90;;;;;;5053562;28;20391;-64
2021/03/27 10:23:37;;;;;;;2.50;0.80;;;11.40;81.60;;;;;;5002794;28;20413;-64
2021/03/27 10:26:11;;;;;;;1.40;0.87;;;11.60;80.50;;;;;;5052253;28;20449;-64
2021/03/27 10:28:53;;;;;;;1.87;1.20;;;11.60;81.10;;;;;;5052022;28;20432;-64
2021/03/27 10:31:25;;;;;;;1.13;0.97;;;11.90;80.80;;;;;;5044001;28;20917;-64
2021/03/27 10:34:02;;;;;;;1.67;0.80;;;11.80;77.30;;;;;;5053014;28;20392;-64
2021/03/27 10:37:00;;;;;;;2.93;1.00;;;11.90;79.40;;;;;;5053173;28;20430;-64
2021/03/27 10:39:34;;;;;;;1.70;1.00;;;12.20;77.20;;;;;;5033656;28;20440;-65
2021/03/27 10:42:14;;;;;;;3.27;1.00;;;13.00;78.20;;;;;;5045935;28;20405;-62
2021/03/27 10:45:02;;;;;;;2.80;0.70;;;12.90;76.10;;;;;;5060464;28;20508;-62
2021/03/27 10:47:47;;;;;;;1.93;0.80;;;12.60;74.60;;;;;;5063351;28;20445;-63
2021/03/27 10:50:34;;;;;;;3.57;1.37;;;12.60;76.10;;;;;;5042655;28;20437;-62
2021/03/27 10:53:19;;;;;;;1.07;0.70;;;12.90;74.80;;;;;;5053244;28;20390;-62
2021/03/27 10:55:56;;;;;;;2.60;1.03;;;13.00;72.90;;;;;;5045713;28;20902;-62
2021/03/27 10:58:41;;;;;;;2.70;1.00;;;13.40;76.20;;;;;;5052860;28;20425;-63
2021/03/27 11:01:28;;;;;;;1.70;1.00;;;13.50;69.90;;;;;;5034888;28;20405;-63
2021/03/27 11:04:31;;;;;;;1.80;1.10;;;13.30;71.20;;;;;;5052435;28;20807;-63
2021/03/27 11:07:11;;;;;;;3.80;0.97;;;13.70;72.60;;;;;;5052615;28;20431;-63
2021/03/27 11:09:56;;;;;;;1.30;0.80;;;14.30;69.70;;;;;;5051647;28;20479;-63
2021/03/27 11:12:27;;;;;;;2.80;1.07;;;13.70;70.30;;;;;;5053037;28;20710;-63
2021/03/27 11:15:23;;;;;;;1.80;0.70;;;12.70;71.70;;;;;;5052927;28;20405;-63
2021/03/27 11:17:54;;;;;;;2.07;1.03;;;12.90;73.10;;;;;;5052461;28;20830;-63
2021/03/27 11:20:28;;;;;;;1.00;0.90;;;14.80;67.50;;;;;;5052909;28;20398;-63
2021/03/27 11:23:18;;;;;;;3.27;0.83;;;14.70;67.90;;;;;;5052163;28;20414;-63
2021/03/27 11:26:21;;;;;;;2.83;0.80;;;13.90;67.60;;;;;;5052962;28;20743;-63
2021/03/27 11:28:55;;;;;;;2.30;1.13;;;13.70;68.60;;;;;;5052781;28;20440;-63
2021/03/27 11:32:02;;;;;;;2.33;1.07;;;12.70;71.60;;;;;;5052863;28;20867;-63
2021/03/27 11:34:36;;;;;;;1.17;0.87;;;13.70;72.20;;;;;;5050295;28;20457;-63
2021/03/27 11:37:37;;;;;;;1.57;0.83;;;14.00;69.10;;;;;;5052746;28;20509;-63
2021/03/27 11:40:26;;;;;;;3.53;0.90;;;13.20;69.60;;;;;;5032269;28;20414;-63
2021/03/27 11:43:26;;;;;;;3.57;0.77;;;13.20;71.50;;;;;;5032739;28;20383;-63
2021/03/27 11:46:06;;;;;;;2.40;1.10;;;13.10;72.20;;;;;;4950150;28;20406;-65
2021/03/27 11:48:47;;;;;;;1.73;1.00;;;13.00;70.40;;;;;;5049779;28;20436;-63
2021/03/27 11:51:50;;;;;;;1.33;0.90;;;12.70;71.20;;;;;;5052128;28;20502;-63
2021/03/27 11:54:25;;;;;;;2.87;1.03;;;12.60;71.40;;;;;;4997037;28;20431;-63
2021/03/27 11:57:02;;;;;;;2.43;1.53;;;13.00;70.80;;;;;;5052133;28;20432;-63
2021/03/27 12:02:48;;;;;;;2.00;0.83;;;12.90;70.20;;;;;;5055897;28;20396;-63
2021/03/27 12:05:20;;;;;;;2.33;1.10;;;13.10;69.30;;;;;;5047778;28;20413;-63
2021/03/27 12:08:23;;;;;;;1.50;1.10;;;12.70;69.70;;;;;;5064700;28;20441;-63
2021/03/27 12:11:00;;;;;;;3.00;1.07;;;12.40;70.50;;;;;;5055618;28;20450;-63
2021/03/27 12:14:03;;;;;;;3.00;0.83;;;11.90;72.50;;;;;;5036599;28;20770;-63
2021/03/27 12:16:49;;;;;;;2.07;1.43;;;12.10;73.30;;;;;;4936133;29;20418;-62
2021/03/27 12:19:37;;;;;;;3.93;1.10;;;11.90;72.90;;;;;;5044471;28;20408;-64
2021/03/27 12:22:12;;;;;;;3.97;1.00;;;12.00;73.60;;;;;;5055602;28;20419;-63
2021/03/27 12:25:02;;;;;;;2.23;0.87;;;12.00;73.00;;;;;;5055432;28;20393;-63
2021/03/27 12:27:43;;;;;;;3.07;1.13;;;12.00;72.10;;;;;;5003973;28;20469;-63
2021/03/27 12:30:21;;;;;;;2.57;1.20;;;12.20;72.50;;;;;;5053538;28;20443;-63
2021/03/27 12:33:10;;;;;;;2.27;1.00;;;13.10;72.40;;;;;;5058049;28;20399;-62
2021/03/27 12:35:47;;;;;;;2.70;1.07;;;13.40;69.70;;;;;;5073484;28;20393;-63
2021/03/27 12:38:47;;;;;;;2.35;1.20;;;13.40;68.90;;;;;;5071505;28;20398;-63
2021/03/27 12:41:22;;;;;;;2.85;1.30;;;13.10;68.90;;;;;;5072399;28;20403;-62
2021/03/27 12:43:52;;;;;;;4.43;1.30;;;13.50;72.00;;;;;;5053475;28;20629;-63
2021/03/27 12:46:32;;;;;;;2.30;1.03;;;15.40;70.60;;;;;;5053824;28;20495;-62
2021/03/27 12:49:06;;;;;;;4.50;1.27;;;15.80;63.20;;;;;;5053587;28;20531;-62
2021/03/27 12:51:41;;;;;;;1.93;1.23;;;15.00;64.60;;;;;;5054001;28;20393;-62
2021/03/27 12:54:31;;;;;;;1.30;1.00;;;14.60;65.80;;;;;;5054256;28;20391;-62
2021/03/27 12:57:22;;;;;;;3.03;1.40;;;14.30;65.70;;;;;;5055122;28;20535;-62
2021/03/27 12:59:56;;;;;;;3.47;1.50;;;13.80;67.00;;;;;;5054759;28;20889;-62
2021/03/27 13:02:59;;;;;;;4.40;1.30;;;13.90;64.80;;;;;;5055172;28;20891;-62
2021/03/27 13:05:47;;;;;;;2.63;1.23;;;13.60;63.80;;;;;;5054638;28;20408;-66
2021/03/27 13:08:37;;;;;;;2.10;1.10;;;13.00;64.70;;;;;;5053875;28;20426;-62
2021/03/27 13:11:16;;;;;;;1.80;1.13;;;12.70;65.20;;;;;;5054198;28;20507;-62
2021/03/27 13:13:53;;;;;;;2.33;1.00;;;13.40;66.80;;;;;;5054857;28;20391;-62
2021/03/27 13:16:24;;;;;;;3.33;1.23;;;16.20;63.20;;;;;;5054486;28;20462;-63
2021/03/27 13:19:21;;;;;;;1.83;1.43;;;17.30;58.20;;;;;;5054541;28;20408;-62
2021/03/27 13:22:36;;;;;;;2.40;1.03;;;16.20;57.70;;;;;;5053789;28;20419;-64
2021/03/27 13:25:20;;;;;;;3.50;2.07;;;16.20;57.80;;;;;;4994498;28;20448;-61
2021/03/27 13:28:05;;;;;;;2.43;1.30;;;15.70;57.60;;;;;;4994538;28;20474;-63
2021/03/27 13:30:53;;;;;;;2.83;1.03;;;14.70;58.40;;;;;;5023076;28;20622;-63
2021/03/27 13:33:36;;;;;;;2.80;1.50;;;14.50;61.00;;;;;;5034694;28;20490;-63
2021/03/27 13:36:08;;;;;;;2.53;1.20;;;14.20;60.70;;;;;;5034257;28;20403;-63
2021/03/27 13:39:05;;;;;;;2.10;0.90;;;14.40;63.60;;;;;;5041093;28;20814;-63
2021/03/27 13:41:36;;;;;;;1.90;1.23;;;14.90;63.10;;;;;;5054195;28;20402;-62
2021/03/27 13:44:28;;;;;;;2.70;1.40;;;15.90;59.00;;;;;;5053836;28;20404;-62
2021/03/27 13:47:01;;;;;;;2.00;1.17;;;16.40;57.70;;;;;;5053901;28;20435;-62
2021/03/27 13:49:36;;;;;;;2.57;1.23;;;16.70;56.60;;;;;;5052578;28;20979;-62
2021/03/27 13:52:13;;;;;;;4.10;1.80;;;17.90;56.60;;;;;;5054721;28;20388;-62
2021/03/27 13:55:07;;;;;;;4.20;1.30;;;17.10;54.90;;;;;;5054134;28;20382;-62
2021/03/27 13:57:41;;;;;;;3.90;1.50;;;16.10;57.00;;;;;;5055282;28;20464;-63
2021/03/27 14:00:29;;;;;;;2.33;1.20;;;17.30;57.60;;;;;;5053868;28;20382;-63
2021/03/27 14:03:04;;;;;;;4.03;1.83;;;18.00;53.90;;;;;;5053861;28;20451;-63
2021/03/27 14:05:52;;;;;;;3.50;1.53;;;18.40;53.70;;;;;;5053812;28;20487;-63
2021/03/27 14:09:11;;;;;;;2.23;1.20;;;17.50;53.60;;;;;;5053280;28;20931;-63
2021/03/27 14:12:14;;;;;;;3.27;1.10;;;16.50;57.10;;;;;;4934328;29;20485;-64
2021/03/27 14:15:03;;;;;;;1.63;0.80;;;15.40;56.80;;;;;;5033507;28;20859;-62
2021/03/27 14:17:40;;;;;;;2.07;1.10;;;15.80;56.90;;;;;;5016720;28;20474;-63
2021/03/27 14:20:44;;;;;;;1.80;1.10;;;15.80;57.60;;;;;;5035324;28;20754;-62
2021/03/27 14:23:31;;;;;;;1.83;0.90;;;15.20;57.80;;;;;;4998311;28;20935;-62
2021/03/27 14:25:59;;;;;;;2.90;1.10;;;14.20;57.70;;;;;;5053550;28;20496;-63
2021/03/27 14:28:44;;;;;;;2.90;1.10;;;13.70;59.40;;;;;;5067381;22;20494;-62
2021/03/27 14:31:19;;;;;;;1.53;1.17;;;13.70;61.00;;;;;;5053092;28;20389;-62